createdAt,value
2023-09-14T00:00:11.452Z,99277.88
2023-09-14T00:02:40.230Z,99278.97
2023-09-14T00:05:10.400Z,99286.03
2023-09-14T00:07:39.169Z,99284.97
2023-09-14T00:10:09.911Z,99288.47
2023-09-14T00:12:38.835Z,99284.69
2023-09-14T00:15:08.774Z,99286.88
2023-09-14T00:17:39.141Z,99285.31
2023-09-14T00:20:11.217Z,99288.91
2023-09-14T00:22:40.228Z,99289.13
2023-09-14T00:25:09.594Z,99291.00
2023-09-14T00:27:38.630Z,99294.81
2023-09-14T00:30:09.639Z,99291.56
2023-09-14T00:32:41.454Z,99296.75
2023-09-14T00:35:11.921Z,99294.03
2023-09-14T00:37:41.400Z,99295.41
2023-09-14T00:40:13.542Z,99294.59
2023-09-14T00:42:44.149Z,99305.19
2023-09-14T00:45:15.546Z,99304.91
2023-09-14T00:47:49.367Z,99301.97
2023-09-14T00:50:19.112Z,99315.47
2023-09-14T00:52:54.334Z,99306.78
2023-09-14T00:55:24.787Z,99306.28
2023-09-14T00:57:54.416Z,99313.84
2023-09-14T01:00:23.846Z,99315.47
2023-09-14T01:02:58.254Z,99311.94
2023-09-14T01:05:32.439Z,99314.16
2023-09-14T01:08:02.250Z,99319.09
2023-09-14T01:10:31.121Z,99322.38
2023-09-14T01:13:00.445Z,99324.53
2023-09-14T01:15:35.890Z,99331.34
2023-09-14T01:18:16.683Z,99327.00
2023-09-14T01:21:32.115Z,99331.88
2023-09-14T01:24:20.144Z,99333.53
2023-09-14T01:26:51.509Z,99334.34
2023-09-14T01:29:20.677Z,99337.06
2023-09-14T01:31:49.586Z,99335.97
2023-09-14T01:34:19.779Z,99329.22
2023-09-14T01:36:58.226Z,99341.41
2023-09-14T01:39:30.036Z,99342.78
2023-09-14T01:42:00.663Z,99336.00
2023-09-14T01:44:32.336Z,99343.59
2023-09-14T01:47:03.350Z,99337.59
2023-09-14T01:49:32.363Z,99339.50
2023-09-14T01:52:01.315Z,99340.91
2023-09-14T01:54:30.083Z,99339.28
2023-09-14T01:57:00.214Z,99341.47
2023-09-14T01:59:28.952Z,99347.13
2023-09-14T02:01:57.998Z,99344.72
2023-09-14T02:04:26.835Z,99347.19
2023-09-14T02:06:55.734Z,99346.91
2023-09-14T02:09:26.548Z,99344.75
2023-09-14T02:11:55.232Z,99349.34
2023-09-14T02:14:25.932Z,99342.56
2023-09-14T02:16:54.784Z,99345.56
2023-09-14T02:19:23.673Z,99345.28
2023-09-14T02:21:53.102Z,99349.09
2023-09-14T02:24:21.885Z,99355.31
2023-09-14T02:26:52.742Z,99353.41
2023-09-14T02:29:21.481Z,99353.13
2023-09-14T02:31:51.614Z,99355.59
2023-09-14T02:34:20.599Z,99359.13
2023-09-14T02:36:49.538Z,99361.28
2023-09-14T02:39:18.296Z,99356.38
2023-09-14T02:41:47.079Z,99353.44
2023-09-14T02:44:15.873Z,99355.31
2023-09-14T02:46:46.918Z,99355.84
2023-09-14T02:49:17.135Z,99362.63
2023-09-14T02:51:46.014Z,99369.09
2023-09-14T02:54:15.100Z,99368.31
2023-09-14T02:56:43.850Z,99371.56
2023-09-14T02:59:13.213Z,99373.72
2023-09-14T03:01:41.950Z,99369.13
2023-09-14T03:04:11.017Z,99374.81
2023-09-14T03:06:41.315Z,99376.69
2023-09-14T03:09:10.089Z,99376.69
2023-09-14T03:11:38.892Z,99375.88
2023-09-14T03:14:08.153Z,99385.63
2023-09-14T03:16:37.266Z,99375.34
2023-09-14T03:19:06.397Z,99377.53
2023-09-14T03:21:35.406Z,99379.16
2023-09-14T03:24:06.383Z,99382.38
2023-09-14T03:26:35.325Z,99388.38
2023-09-14T03:29:04.282Z,99390.22
2023-09-14T03:31:33.211Z,99392.66
2023-09-14T03:34:04.077Z,99392.13
2023-09-14T03:36:33.782Z,99392.13
2023-09-14T03:39:02.615Z,99392.66
2023-09-14T03:41:37.980Z,99395.94
2023-09-14T03:44:07.780Z,99384.81
2023-09-14T03:46:36.798Z,99395.63
2023-09-14T03:49:08.233Z,99406.16
2023-09-14T03:51:37.543Z,99402.38
2023-09-14T03:54:09.454Z,99400.47
2023-09-14T03:56:41.619Z,99402.38
2023-09-14T03:59:10.480Z,99404.56
2023-09-14T04:01:39.379Z,99405.59
2023-09-14T04:04:08.830Z,99413.19
2023-09-14T04:06:37.787Z,99409.13
2023-09-14T04:09:10.395Z,99418.59
2023-09-14T04:11:40.928Z,99426.13
2023-09-14T04:14:09.908Z,99433.66
2023-09-14T04:16:39.178Z,99428.28
2023-09-14T04:19:08.093Z,99426.16
2023-09-14T04:24:08.553Z,99434.81
2023-09-14T04:26:39.706Z,99441.81
2023-09-14T04:29:10.018Z,99441.84
2023-09-14T04:31:38.937Z,99444.53
2023-09-14T04:34:09.214Z,99445.06
2023-09-14T04:36:39.393Z,99447.78
2023-09-14T04:39:09.641Z,99447.53
2023-09-14T04:41:40.451Z,99458.09
2023-09-14T04:44:09.537Z,99460.25
2023-09-14T04:46:39.859Z,99453.75
2023-09-14T04:49:09.009Z,99461.63
2023-09-14T04:51:38.287Z,99455.94
2023-09-14T04:54:07.773Z,99461.63
2023-09-14T04:56:36.743Z,99461.34
2023-09-14T04:59:07.120Z,99462.44
2023-09-14T05:01:36.426Z,99468.91
2023-09-14T05:04:05.978Z,99467.81
2023-09-14T05:06:35.252Z,99471.59
2023-09-14T05:09:04.335Z,99462.91
2023-09-14T05:11:33.761Z,99468.34
2023-09-14T05:14:03.137Z,99465.91
2023-09-14T05:16:33.346Z,99471.88
2023-09-14T05:19:05.375Z,99467.00
2023-09-14T05:21:35.683Z,99477.00
2023-09-14T05:24:04.550Z,99467.25
2023-09-14T05:26:33.684Z,99481.84
2023-09-14T05:29:02.626Z,99483.44
2023-09-14T05:31:33.009Z,99483.22
2023-09-14T05:34:02.077Z,99484.00
2023-09-14T05:36:30.894Z,99484.28
2023-09-14T05:38:59.703Z,99480.81
2023-09-14T05:41:29.198Z,99483.50
2023-09-14T05:43:58.176Z,99476.19
2023-09-14T05:46:27.073Z,99478.34
2023-09-14T05:48:57.366Z,99484.00
2023-09-14T05:51:26.829Z,99489.91
2023-09-14T05:53:55.606Z,99485.63
2023-09-14T05:56:25.553Z,99491.31
2023-09-14T05:58:55.160Z,99496.09
2023-09-14T06:01:24.185Z,99500.75
2023-09-14T06:03:53.311Z,99502.09
2023-09-14T06:06:23.502Z,99503.13
2023-09-14T06:08:53.315Z,99511.56
2023-09-14T06:11:22.206Z,99510.50
2023-09-14T06:13:51.215Z,99521.88
2023-09-14T06:16:20.076Z,99521.88
2023-09-14T06:18:49.176Z,99523.78
2023-09-14T06:21:19.440Z,99518.63
2023-09-14T06:23:49.735Z,99517.53
2023-09-14T06:26:18.484Z,99522.94
2023-09-14T06:28:47.667Z,99525.16
2023-09-14T06:31:16.766Z,99515.94
2023-09-14T06:33:45.686Z,99528.91
2023-09-14T06:36:14.701Z,99531.34
2023-09-14T06:38:43.465Z,99530.16
2023-09-14T06:41:14.086Z,99533.91
2023-09-14T06:43:44.223Z,99541.00
2023-09-14T06:46:13.984Z,99544.06
2023-09-14T06:48:44.195Z,99544.06
2023-09-14T06:51:13.204Z,99553.75
2023-09-14T06:53:42.027Z,99545.66
2023-09-14T06:56:12.858Z,99555.44
2023-09-14T06:58:41.723Z,99556.56
2023-09-14T07:01:10.666Z,99557.66
2023-09-14T07:03:39.761Z,99556.34
2023-09-14T07:06:08.637Z,99553.84
2023-09-14T07:08:42.082Z,99559.25
2023-09-14T07:11:12.385Z,99555.75
2023-09-14T07:13:41.694Z,99554.72
2023-09-14T07:16:10.644Z,99559.03
2023-09-14T07:18:39.435Z,99557.41
2023-09-14T07:21:08.209Z,99563.09
2023-09-14T07:23:36.995Z,99564.19
2023-09-14T07:26:08.468Z,99567.44
2023-09-14T07:28:39.312Z,99576.88
2023-09-14T07:31:09.661Z,99572.28
2023-09-14T07:33:38.570Z,99584.19
2023-09-14T07:36:07.347Z,99578.25
2023-09-14T07:38:36.147Z,99586.38
2023-09-14T07:41:04.990Z,99585.31
2023-09-14T07:43:33.757Z,99590.19
2023-09-14T07:46:04.109Z,99594.50
2023-09-14T07:48:33.314Z,99602.63
2023-09-14T07:51:02.029Z,99592.91
2023-09-14T07:53:30.821Z,99598.34
2023-09-14T07:55:59.629Z,99596.72
2023-09-14T07:58:28.679Z,99599.97
2023-09-14T08:00:57.420Z,99605.31
2023-09-14T08:03:29.000Z,99609.88
2023-09-14T08:05:57.859Z,99605.31
2023-09-14T08:08:26.624Z,99610.41
2023-09-14T08:10:56.989Z,99609.59
2023-09-14T08:13:25.909Z,99612.59
2023-09-14T08:15:55.363Z,99618.00
2023-09-14T08:18:24.219Z,99618.84
2023-09-14T08:20:54.549Z,99619.66
2023-09-14T08:23:23.358Z,99624.50
2023-09-14T08:25:52.230Z,99631.03
2023-09-14T08:28:22.491Z,99626.97
2023-09-14T08:30:52.074Z,99630.22
2023-09-14T08:33:21.413Z,99631.56
2023-09-14T08:35:50.773Z,99632.38
2023-09-14T08:38:22.812Z,99630.75
2023-09-14T08:40:55.982Z,99636.94
2023-09-14T08:43:25.590Z,99639.66
2023-09-14T08:45:57.126Z,99641.31
2023-09-14T08:48:31.096Z,99640.50
2023-09-14T08:51:03.607Z,99643.44
2023-09-14T08:53:34.034Z,99652.91
2023-09-14T08:56:05.733Z,99648.56
2023-09-14T08:58:36.453Z,99650.75
2023-09-14T09:01:07.987Z,99655.06
2023-09-14T09:03:37.221Z,99653.47
2023-09-14T09:06:06.214Z,99645.41
2023-09-14T09:08:36.843Z,99648.16
2023-09-14T09:11:06.746Z,99647.34
2023-09-14T09:13:37.193Z,99642.25
2023-09-14T09:16:06.365Z,99641.47
2023-09-14T09:18:37.142Z,99634.19
2023-09-14T09:21:07.442Z,99641.47
2023-09-14T09:23:37.743Z,99636.38
2023-09-14T09:26:06.713Z,99635.31
2023-09-14T09:28:47.957Z,99634.22
2023-09-14T09:31:17.409Z,99630.78
2023-09-14T09:33:50.194Z,99624.59
2023-09-14T09:36:20.004Z,99621.41
2023-09-14T09:38:51.754Z,99620.34
2023-09-14T09:41:20.922Z,99634.94
2023-09-14T09:43:53.009Z,99627.66
2023-09-14T09:46:22.218Z,99629.03
2023-09-14T09:48:51.856Z,99624.69
2023-09-14T09:51:25.908Z,99633.13
2023-09-14T09:54:07.392Z,99633.41
2023-09-14T09:56:37.368Z,99633.16
2023-09-14T09:59:11.115Z,99635.03
2023-09-14T10:01:40.877Z,99630.69
2023-09-14T10:04:13.283Z,99635.06
2023-09-14T10:06:45.179Z,99633.72
2023-09-14T10:09:15.453Z,99635.59
2023-09-14T10:11:47.759Z,99629.13
2023-09-14T10:14:20.803Z,99631.81
2023-09-14T10:16:56.216Z,99626.94
2023-09-14T10:19:28.382Z,99629.09
2023-09-14T10:21:59.728Z,99633.44
2023-09-14T10:24:30.894Z,99633.47
2023-09-14T10:27:02.049Z,99630.22
2023-09-14T10:29:33.930Z,99628.59
2023-09-14T10:32:04.886Z,99624.50
2023-09-14T10:34:38.344Z,99622.38
2023-09-14T10:37:10.650Z,99625.34
2023-09-14T10:39:41.448Z,99613.94
2023-09-14T10:42:11.430Z,99619.91
2023-09-14T10:44:40.740Z,99615.56
2023-09-14T10:47:12.118Z,99614.44
2023-09-14T10:49:45.706Z,99615.22
2023-09-14T10:52:15.430Z,99615.72
2023-09-14T10:54:45.937Z,99606.72
2023-09-14T10:57:24.342Z,99603.97
2023-09-14T10:59:55.293Z,99601.25
2023-09-14T11:03:19.059Z,99599.63
2023-09-14T11:05:50.254Z,99598.50
2023-09-14T11:08:23.273Z,99594.19
2023-09-14T11:11:01.104Z,99597.88
2023-09-14T11:13:37.159Z,99604.63
2023-09-14T11:16:19.123Z,99598.03
2023-09-14T11:18:59.225Z,99600.53
2023-09-14T11:21:48.176Z,99597.75
2023-09-14T11:24:21.541Z,99606.50
2023-09-14T11:26:54.149Z,99596.22
2023-09-14T11:29:29.591Z,99600.06
2023-09-14T11:32:06.916Z,99603.03
2023-09-14T11:34:45.027Z,99601.69
2023-09-14T11:37:20.118Z,99601.66
2023-09-14T11:40:00.696Z,99602.16
2023-09-14T11:43:37.477Z,99599.94
2023-09-14T11:46:18.683Z,99601.00
2023-09-14T11:51:26.820Z,99593.63
2023-09-14T11:54:00.049Z,99596.06
2023-09-14T11:56:29.449Z,99593.66
2023-09-14T11:59:01.721Z,99596.38
2023-09-14T12:01:34.305Z,99594.81
2023-09-14T12:04:06.538Z,99605.44
2023-09-14T12:06:35.717Z,99608.44
2023-09-14T12:09:07.008Z,99600.06
2023-09-14T12:11:44.266Z,99597.34
2023-09-14T12:14:14.633Z,99593.22
2023-09-14T12:16:43.737Z,99592.94
2023-09-14T12:19:14.687Z,99597.81
2023-09-14T12:21:44.285Z,99597.06
2023-09-14T12:24:13.392Z,99589.72
2023-09-14T12:26:42.308Z,99587.50
2023-09-14T12:30:07.217Z,99595.94
2023-09-14T12:32:37.506Z,99594.38
2023-09-14T12:35:07.765Z,99591.41
2023-09-14T12:37:40.149Z,99595.81
2023-09-14T12:40:11.745Z,99598.00
2023-09-14T12:42:43.947Z,99595.81
2023-09-14T12:45:19.612Z,99595.28
2023-09-14T12:47:49.823Z,99597.22
2023-09-14T12:50:18.886Z,99592.06
2023-09-14T12:52:50.337Z,99593.97
2023-09-14T12:55:21.054Z,99587.16
2023-09-14T12:57:51.913Z,99589.88
2023-09-14T13:00:27.181Z,99594.78
2023-09-14T13:02:58.181Z,99595.31
2023-09-14T13:05:28.421Z,99587.44
2023-09-14T13:08:02.518Z,99592.00
2023-09-14T13:10:33.963Z,99583.84
2023-09-14T13:13:09.233Z,99575.94
2023-09-14T13:15:42.442Z,99572.34
2023-09-14T13:18:18.643Z,99576.09
2023-09-14T13:20:52.663Z,99570.09
2023-09-14T13:23:22.673Z,99575.28
2023-09-14T13:25:52.540Z,99573.88
2023-09-14T13:28:21.454Z,99574.38
2023-09-14T13:30:51.987Z,99566.69
2023-09-14T13:33:21.977Z,99572.13
2023-09-14T13:35:51.276Z,99561.81
2023-09-14T13:38:20.143Z,99561.97
2023-09-14T13:40:49.528Z,99568.03
2023-09-14T13:43:18.577Z,99562.34
2023-09-14T13:45:50.913Z,99560.69
2023-09-14T13:48:20.710Z,99553.91
2023-09-14T13:50:50.009Z,99551.97
2023-09-14T13:53:19.223Z,99549.19
2023-09-14T13:55:49.293Z,99554.28
2023-09-14T13:58:18.311Z,99545.47
2023-09-14T14:00:47.431Z,99539.56
2023-09-14T14:03:18.138Z,99543.88
2023-09-14T14:05:47.563Z,99546.13
2023-09-14T14:08:16.622Z,99546.81
2023-09-14T14:10:45.714Z,99545.81
2023-09-14T14:13:14.895Z,99543.44
2023-09-14T14:15:44.084Z,99544.38
2023-09-14T14:18:13.008Z,99541.69
2023-09-14T14:20:43.188Z,99545.00
2023-09-14T14:23:12.531Z,99548.28
2023-09-14T14:25:41.484Z,99541.22
2023-09-14T14:28:10.382Z,99543.38
2023-09-14T14:30:39.405Z,99542.53
2023-09-14T14:33:08.522Z,99540.88
2023-09-14T14:35:37.604Z,99545.97
2023-09-14T14:38:07.916Z,99545.69
2023-09-14T14:43:10.473Z,99541.66
2023-09-14T14:45:39.416Z,99539.19
2023-09-14T14:48:09.233Z,99536.78
2023-09-14T14:50:38.068Z,99535.78
2023-09-14T14:53:08.387Z,99538.81
2023-09-14T14:55:37.854Z,99535.88
2023-09-14T14:58:06.883Z,99541.31
2023-09-14T15:00:37.734Z,99539.97
2023-09-14T15:03:08.417Z,99539.63
2023-09-14T15:05:38.561Z,99533.06
2023-09-14T15:08:08.804Z,99534.41
2023-09-14T15:10:37.774Z,99541.25
2023-09-14T15:13:09.834Z,99544.00
2023-09-14T15:15:38.902Z,99553.06
2023-09-14T15:18:08.538Z,99540.50
2023-09-14T15:20:37.367Z,99541.31
2023-09-14T15:23:07.878Z,99541.31
2023-09-14T15:25:36.825Z,99542.41
2023-09-14T15:28:06.220Z,99540.50
2023-09-14T15:30:35.019Z,99547.84
2023-09-14T15:33:05.227Z,99545.13
2023-09-14T15:35:34.719Z,99544.03
2023-09-14T15:38:29.690Z,99541.09
2023-09-14T15:41:03.753Z,99542.44
2023-09-14T15:43:58.338Z,99541.13
2023-09-14T15:46:27.446Z,99537.91
2023-09-14T15:48:56.812Z,99543.63
2023-09-14T15:51:35.024Z,99546.91
2023-09-14T15:54:05.649Z,99541.78
2023-09-14T15:57:17.111Z,99542.66
2023-09-14T16:01:10.709Z,99542.13
2023-09-14T16:03:46.348Z,99545.13
2023-09-14T16:06:17.128Z,99545.44
2023-09-14T16:08:46.227Z,99555.19
2023-09-14T16:11:18.454Z,99546.81
2023-09-14T16:13:47.528Z,99544.31
2023-09-14T16:16:48.009Z,99543.00
2023-09-14T16:19:17.493Z,99548.97
2023-09-14T16:21:49.121Z,99547.34
2023-09-14T16:24:19.395Z,99548.22
2023-09-14T16:26:51.313Z,99541.72
2023-09-14T16:29:20.130Z,99541.75
2023-09-14T16:31:49.136Z,99542.28
2023-09-14T16:34:20.127Z,99540.16
2023-09-14T16:36:49.350Z,99543.38
2023-09-14T16:39:18.160Z,99539.59
2023-09-14T16:41:48.215Z,99546.94
2023-09-14T16:44:16.905Z,99545.03
2023-09-14T16:46:46.735Z,99543.69
2023-09-14T16:49:25.280Z,99544.75
2023-09-14T16:51:55.038Z,99543.94
2023-09-14T16:54:26.262Z,99542.84
2023-09-14T16:56:59.304Z,99552.06
2023-09-14T16:59:29.007Z,99547.72
2023-09-14T17:01:58.591Z,99545.00
2023-09-14T17:04:27.493Z,99546.38
2023-09-14T17:06:57.358Z,99549.06
2023-09-14T17:09:26.934Z,99550.44
2023-09-14T17:11:57.803Z,99559.06
2023-09-14T17:14:29.069Z,99554.19
2023-09-14T17:16:58.661Z,99549.28
2023-09-14T17:19:29.123Z,99550.06
2023-09-14T17:21:58.417Z,99562.75
2023-09-14T17:24:27.489Z,99570.88
2023-09-14T17:27:00.124Z,99564.38
2023-09-14T17:29:30.949Z,99568.13
2023-09-14T17:31:59.731Z,99561.88
2023-09-14T17:34:30.042Z,99571.09
2023-09-14T17:36:59.801Z,99576.97
2023-09-14T17:39:29.473Z,99575.31
2023-09-14T17:41:59.868Z,99574.19
2023-09-14T17:44:29.204Z,99577.66
2023-09-14T17:46:58.813Z,99583.06
2023-09-14T17:49:29.053Z,99585.53
2023-09-14T17:51:58.437Z,99581.44
2023-09-14T17:54:28.101Z,99577.34
2023-09-14T17:56:58.753Z,99580.53
2023-09-14T17:59:27.828Z,99583.41
2023-09-14T18:01:56.591Z,99584.97
2023-09-14T18:04:25.400Z,99582.28
2023-09-14T18:06:55.545Z,99583.81
2023-09-14T18:09:24.633Z,99595.78
2023-09-14T18:11:53.325Z,99588.81
2023-09-14T18:14:23.386Z,99597.38
2023-09-14T18:16:52.250Z,99596.78
2023-09-14T18:19:22.093Z,99602.63
2023-09-14T18:21:51.009Z,99606.84
2023-09-14T18:24:20.032Z,99597.59
2023-09-14T18:26:49.418Z,99608.97
2023-09-14T18:29:19.743Z,99602.44
2023-09-14T18:31:50.034Z,99606.72
2023-09-14T18:34:19.962Z,99611.25
2023-09-14T18:36:48.731Z,99618.03
2023-09-14T18:39:19.349Z,99625.25
2023-09-14T18:41:49.693Z,99622.75
2023-09-14T18:44:18.829Z,99618.97
2023-09-14T18:46:47.542Z,99626.13
2023-09-14T18:49:18.170Z,99630.72
2023-09-14T18:51:47.001Z,99632.09
2023-09-14T18:54:15.842Z,99630.41
2023-09-14T18:56:44.584Z,99637.00
2023-09-14T18:59:32.200Z,99633.84
2023-09-14T19:02:02.317Z,99631.28
2023-09-14T19:04:34.252Z,99637.97
2023-09-14T19:07:03.783Z,99639.22
2023-09-14T19:09:33.562Z,99638.69
2023-09-14T19:12:09.151Z,99639.78
2023-09-14T19:14:39.168Z,99640.50
2023-09-14T19:17:08.973Z,99637.72
2023-09-14T19:19:44.298Z,99641.25
2023-09-14T19:22:14.816Z,99645.25
2023-09-14T19:24:43.559Z,99649.53
2023-09-14T19:27:12.428Z,99636.28
2023-09-14T19:29:41.901Z,99641.91
2023-09-14T19:32:11.650Z,99647.81
2023-09-14T19:34:57.949Z,99649.13
2023-09-14T19:37:27.295Z,99652.06
2023-09-14T19:39:56.074Z,99641.72
2023-09-14T19:42:26.611Z,99642.28
2023-09-14T19:44:59.583Z,99638.69
2023-09-14T19:47:28.575Z,99643.44
2023-09-14T19:49:58.986Z,99641.06
2023-09-14T19:52:29.531Z,99640.34
2023-09-14T20:03:16.393Z,99631.19
2023-09-14T20:08:49.205Z,99636.34
2023-09-14T20:11:18.940Z,99639.69
2023-09-14T20:13:49.337Z,99634.78
2023-09-14T20:16:18.327Z,99636.44
2023-09-14T20:18:47.699Z,99639.63
2023-09-14T20:21:17.782Z,99641.94
2023-09-14T20:23:48.614Z,99641.72
2023-09-14T20:26:17.471Z,99640.81
2023-09-14T20:28:47.621Z,99638.84
2023-09-14T20:31:16.782Z,99634.97
2023-09-14T20:33:45.973Z,99633.84
2023-09-14T20:36:16.860Z,99632.59
2023-09-14T20:38:45.688Z,99640.28
2023-09-14T20:41:18.112Z,99640.28
2023-09-14T20:43:49.484Z,99645.97
2023-09-14T20:46:22.977Z,99651.84
2023-09-14T20:48:52.124Z,99650.78
2023-09-14T20:51:20.872Z,99647.91
2023-09-14T20:53:49.586Z,99651.84
2023-09-14T20:56:19.963Z,99648.03
2023-09-14T20:58:49.027Z,99650.69
2023-09-14T21:01:18.190Z,99654.91
2023-09-14T21:03:47.251Z,99652.31
2023-09-14T21:06:16.150Z,99656.06
2023-09-14T21:08:44.953Z,99659.63
2023-09-14T21:11:13.915Z,99664.56
2023-09-14T21:13:44.171Z,99653.78
2023-09-14T21:16:13.242Z,99647.38
2023-09-14T21:18:42.131Z,99650.16
2023-09-14T21:21:11.045Z,99654.06
2023-09-14T21:23:40.582Z,99657.34
2023-09-14T21:26:10.084Z,99652.28
2023-09-14T21:28:41.011Z,99651.28
2023-09-14T21:31:11.292Z,99648.47
2023-09-14T21:33:40.138Z,99657.25
2023-09-14T21:36:09.387Z,99643.34
2023-09-14T21:38:38.100Z,99646.03
2023-09-14T21:41:08.015Z,99649.97
2023-09-14T21:43:38.708Z,99637.34
2023-09-14T21:46:10.488Z,99643.69
2023-09-14T21:48:39.551Z,99641.34
2023-09-14T21:51:08.524Z,99642.88
2023-09-14T21:53:37.239Z,99642.41
2023-09-14T21:56:06.283Z,99645.44
2023-09-14T21:58:35.064Z,99648.25
2023-09-14T22:01:04.246Z,99641.38
2023-09-14T22:03:48.810Z,99642.09
2023-09-14T22:06:24.745Z,99639.88
2023-09-14T22:08:55.075Z,99636.25
2023-09-14T22:11:23.904Z,99631.53
2023-09-14T22:13:52.628Z,99636.28
2023-09-14T22:16:21.642Z,99627.28
2023-09-14T22:18:52.574Z,99623.16
2023-09-14T22:21:24.133Z,99629.03
2023-09-14T22:23:53.036Z,99634.53
2023-09-14T22:26:21.815Z,99637.09
2023-09-14T22:28:50.608Z,99626.72
2023-09-14T22:31:20.768Z,99637.00
2023-09-14T22:33:52.086Z,99629.03
2023-09-14T22:36:21.146Z,99630.19
2023-09-14T22:38:49.991Z,99628.44
2023-09-14T22:41:18.881Z,99631.47
2023-09-14T22:43:47.978Z,99629.38
2023-09-14T22:46:17.651Z,99629.97
2023-09-14T22:48:46.798Z,99631.47
2023-09-14T22:51:18.360Z,99633.38
2023-09-14T22:53:47.728Z,99634.06
2023-09-14T22:56:17.354Z,99632.28
2023-09-14T22:58:47.855Z,99628.78
2023-09-14T23:01:16.989Z,99624.47
2023-09-14T23:03:46.055Z,99627.41
2023-09-14T23:06:17.004Z,99620.38
2023-09-14T23:08:46.889Z,99633.13
2023-09-14T23:11:24.873Z,99627.88
2023-09-14T23:13:54.325Z,99625.06
2023-09-14T23:16:26.516Z,99632.06
2023-09-14T23:18:56.253Z,99626.69
2023-09-14T23:21:27.172Z,99633.34
2023-09-14T23:23:56.799Z,99631.38
2023-09-14T23:26:26.098Z,99630.88
2023-09-14T23:28:55.938Z,99631.50
2023-09-14T23:31:25.779Z,99632.31
2023-09-14T23:33:54.551Z,99631.13
2023-09-14T23:36:23.394Z,99630.66
2023-09-14T23:38:53.729Z,99626.78
2023-09-14T23:41:23.067Z,99633.91
2023-09-14T23:43:51.918Z,99632.84
2023-09-14T23:46:22.529Z,99625.84
2023-09-14T23:48:52.722Z,99625.72
2023-09-14T23:51:21.823Z,99622.09
2023-09-14T23:53:50.930Z,99622.34
2023-09-14T23:56:21.164Z,99626.50
2023-09-14T23:58:49.970Z,99618.22
